Delphinus — CUFD8 — position and weather

sailwx.info

Track history (hours):
 
Tides and Currents Weather Stations Pressure Air Temp Water Temp Dewpoint Dewpoint Depression Visibility Wind Speed Wind Dir Waves Ship Positions

Delphinus

Last reported at 2018-Jun-21 21:20 UTC. Time now 2018-Jun-22 03:51 UTC.
Position N 36°53' W 008°39'.

Length 28 m; draft 4.2 m.

Type: Fishing. MMSI: 263410880.

Date/timePositionNaut miles runAvg speedWind from/ knotsBaromVisibWave heightAir tempDewpointWater temp
2018-Jun-21 21:20N 36°53' W 008°39'2 4.7
2018-Jun-21 20:57N 36°54' W 008°36'2 1.1
2018-Jun-21 19:08N 36°52' W 008°35'1 4.3
2018-Jun-21 18:55N 36°52' W 008°36'0 1.0
2018-Jun-21 18:28N 36°52' W 008°36'1 3.0
2018-Jun-21 17:59N 36°52' W 008°34'2 4.1
2018-Jun-21 17:24N 36°53' W 008°32'2 4.4
2018-Jun-21 17:00N 36°55' W 008°31'4 6.9
2018-Jun-21 16:30N 36°58' W 008°30'611.4
2018-Jun-21 15:58N 37°04' W 008°31'4 8.5
2018-Jun-21 15:30N 37°08' W 008°32'0 0.0
2018-Jun-21 15:00N 37°08' W 008°32'0 0.0
2018-Jun-21 14:30N 37°08' W 008°32'0 0.0
2018-Jun-21 14:00N 37°08' W 008°32'0 0.0
2018-Jun-21 13:30N 37°08' W 008°32'1 2.1
2018-Jun-21 12:59N 37°07' W 008°32'4 7.5
2018-Jun-21 12:30N 37°04' W 008°34'3 6.4
2018-Jun-21 12:00N 37°01' W 008°35'5 9.5
2018-Jun-21 11:30N 36°57' W 008°32'16 2.6
2018-Jun-21 05:12N 36°55' W 008°12'0 1.8
2018-Jun-21 04:57N 36°55' W 008°12'1 2.4
2018-Jun-21 04:28N 36°56' W 008°13'610.6
2018-Jun-21 03:54N 36°59' W 008°19'410.5
2018-Jun-21 03:30N 37°02' W 008°24'510.5
2018-Jun-21 02:59N 37°04' W 008°29'4 7.0
2018-Jun-21 02:24N 37°08' W 008°32'0 0.0
2018-Jun-21 01:57N 37°08' W 008°32'0 0.0
2018-Jun-21 01:30N 37°08' W 008°32'0 0.0
2018-Jun-21 00:34N 37°08' W 008°32'0 0.0
2018-Jun-21 00:30N 37°08' W 008°32'0 0.0
2018-Jun-20 23:57N 37°08' W 008°32'0 0.0
2018-Jun-20 23:26N 37°08' W 008°32'0 0.0
2018-Jun-20 22:54N 37°08' W 008°32'0 0.0
2018-Jun-20 22:28N 37°08' W 008°32'0 0.0
2018-Jun-20 22:00N 37°08' W 008°32'0 0.0
2018-Jun-20 21:30N 37°08' W 008°32'0 0.0
2018-Jun-20 21:00N 37°08' W 008°32'0 0.0
2018-Jun-20 20:30N 37°08' W 008°32'0 0.0
2018-Jun-20 20:00N 37°08' W 008°32'0 0.0
2018-Jun-20 19:30N 37°08' W 008°32'0 0.0
2018-Jun-20 18:59N 37°08' W 008°32'0 0.0
2018-Jun-20 18:30N 37°08' W 008°32'0 0.0
2018-Jun-20 18:00N 37°08' W 008°32'0 0.0
2018-Jun-20 17:30N 37°08' W 008°32'0 0.0
2018-Jun-20 17:00N 37°08' W 008°32'0 0.0
2018-Jun-20 16:30N 37°08' W 008°32'0 0.0
2018-Jun-20 16:00N 37°08' W 008°32'0 0.0
2018-Jun-20 15:30N 37°08' W 008°32'0 0.0
2018-Jun-20 14:58N 37°08' W 008°32'0 0.0
2018-Jun-20 14:30N 37°08' W 008°32'2 3.1
2018-Jun-20 14:00N 37°06' W 008°32'4 8.9
2018-Jun-20 13:29N 37°04' W 008°37'0 0.0
2018-Jun-19 19:01N 37°04' W 008°37'011.5
2018-Jun-19 19:00N 37°04' W 008°37'510.7
2018-Jun-19 18:31N 37°07' W 008°32'1 1.3
2018-Jun-19 18:01N 37°08' W 008°32'0 0.0
2018-Jun-19 17:29N 37°08' W 008°32'0 0.0
2018-Jun-19 17:01N 37°08' W 008°32'0 0.0
2018-Jun-19 16:31N 37°08' W 008°32'0 0.0
2018-Jun-19 16:00N 37°08' W 008°32'0 0.0
2018-Jun-19 15:31N 37°08' W 008°32'1 1.4
2018-Jun-19 15:01N 37°07' W 008°32'611.2
2018-Jun-19 14:30N 37°02' W 008°30'611.4
2018-Jun-19 14:00N 36°56' W 008°28'2 4.5
2018-Jun-19 13:30N 36°55' W 008°26'2 4.3
2018-Jun-19 13:00N 36°54' W 008°24'2 4.3
2018-Jun-19 12:30N 36°53' W 008°21'3 5.3
2018-Jun-19 11:59N 36°55' W 008°18'1 1.9
2018-Jun-19 11:29N 36°54' W 008°18'3 3.3
2018-Jun-19 10:30N 36°50' W 008°18'2 4.2
2018-Jun-19 09:58N 36°50' W 008°15'2 4.4
2018-Jun-19 09:24N 36°50' W 008°12'2 4.2
2018-Jun-19 08:58N 36°50' W 008°10'3 4.1
2018-Jun-19 08:21N 36°51' W 008°07'2 2.5
2018-Jun-19 07:44N 36°51' W 008°09'1 2.2
2018-Jun-19 07:29N 36°51' W 008°10'2 4.2
2018-Jun-19 06:59N 36°51' W 008°12'2 4.3
2018-Jun-19 06:31N 36°51' W 008°15'2 3.5
2018-Jun-19 06:00N 36°53' W 008°15'2 4.0
2018-Jun-19 05:31N 36°54' W 008°13'2 4.3
2018-Jun-19 05:01N 36°56' W 008°15'3 5.1
2018-Jun-19 04:31N 36°57' W 008°18'2 3.7
2018-Jun-19 04:00N 36°57' W 008°20'2 3.8
2018-Jun-19 03:31N 36°58' W 008°22'2 3.4
2018-Jun-19 03:00N 36°58' W 008°24'2 3.8
2018-Jun-19 02:30N 36°58' W 008°27'2 3.4
2018-Jun-19 02:00N 36°57' W 008°28'1 2.6
2018-Jun-19 01:30N 36°56' W 008°29'2 3.7
2018-Jun-19 01:00N 36°55' W 008°31'2 3.7
2018-Jun-19 00:30N 36°53' W 008°32'2 3.7
2018-Jun-19 00:00N 36°52' W 008°34'2 3.8
2018-Jun-18 23:31N 36°53' W 008°36'2 4.1
2018-Jun-18 23:00N 36°54' W 008°39'611.2
2018-Jun-18 22:30N 36°59' W 008°36'611.4
2018-Jun-18 22:00N 37°04' W 008°33'4 8.3
2018-Jun-18 21:31N 37°08' W 008°32'0 0.0
2018-Jun-18 21:01N 37°08' W 008°32'0 0.0
2018-Jun-18 20:31N 37°08' W 008°32'0 0.0
2018-Jun-18 20:00N 37°08' W 008°32'0 0.0
2018-Jun-18 19:30N 37°08' W 008°32'0 0.0
2018-Jun-18 19:00N 37°08' W 008°32'0 0.0
2018-Jun-18 18:31N 37°08' W 008°32'0 0.0
2018-Jun-18 17:59N 37°08' W 008°32'0 0.0
2018-Jun-18 17:29N 37°08' W 008°32'0 0.0
2018-Jun-18 16:47N 37°08' W 008°32'0 0.0
2018-Jun-18 16:17N 37°08' W 008°32'0 0.0
2018-Jun-18 15:58N 37°08' W 008°32'0 0.0
2018-Jun-18 15:30N 37°08' W 008°32'0 0.0
2018-Jun-18 15:00N 37°08' W 008°32'0 0.0
2018-Jun-18 14:30N 37°08' W 008°32'0 0.0
2018-Jun-18 14:00N 37°08' W 008°32'0 0.0
2018-Jun-18 13:30N 37°08' W 008°32'0 0.0
2018-Jun-18 13:01N 37°08' W 008°32'1 1.6
2018-Jun-18 12:30N 37°07' W 008°32'510.8
2018-Jun-18 12:01N 37°03' W 008°36'611.7
2018-Jun-18 11:30N 36°59' W 008°41'2 4.0
2018-Jun-18 11:01N 36°58' W 008°43'2 4.3
2018-Jun-18 10:30N 36°58' W 008°40'1 1.5
2018-Jun-18 10:01N 36°58' W 008°39'17 7.3
2018-Jun-18 07:41N 36°51' W 008°59'1 4.3
2018-Jun-18 07:30N 36°52' W 008°60'3 1.2
2018-Jun-18 05:21N 36°54' W 009°01'3 7.5
2018-Jun-18 04:54N 36°55' W 008°57'511.5
2018-Jun-18 04:30N 36°57' W 008°51'611.6
2018-Jun-18 04:00N 36°58' W 008°45'1 1.4
2018-Jun-18 03:31N 36°58' W 008°45'10 1.8
2018-Jun-17 22:05N 36°50' W 008°53'110.6
2018-Jun-17 22:00N 36°50' W 008°52'510.3
2018-Jun-17 21:30N 36°51' W 008°46'611.0
2018-Jun-17 20:56N 36°52' W 008°38'0 1.1
2018-Jun-17 20:30N 36°52' W 008°37'3 4.1
2018-Jun-17 19:44N 36°52' W 008°34'1 4.0
2018-Jun-17 19:27N 36°53' W 008°32'3 4.4
2018-Jun-17 18:45N 36°55' W 008°30'1 3.8
2018-Jun-17 18:30N 36°56' W 008°29'2 3.3
2018-Jun-17 18:00N 36°54' W 008°29'2 4.2
2018-Jun-17 17:29N 36°52' W 008°29'3 4.8
2018-Jun-17 16:57N 36°49' W 008°29'1 2.6
2018-Jun-17 16:26N 36°50' W 008°28'4 4.3
2018-Jun-17 15:28N 36°50' W 008°23'2 2.6
2018-Jun-17 14:48N 36°51' W 008°21'1 4.2
2018-Jun-17 14:28N 36°51' W 008°19'2 4.2
2018-Jun-17 13:59N 36°50' W 008°17'2 4.1
2018-Jun-17 13:27N 36°50' W 008°14'2 4.7
2018-Jun-17 12:58N 36°49' W 008°11'1 2.2
2018-Jun-17 12:29N 36°49' W 008°13'2 4.2
2018-Jun-17 12:00N 36°49' W 008°15'5 4.4
2018-Jun-17 10:56N 36°49' W 008°21'2 4.2
2018-Jun-17 10:29N 36°50' W 008°23'1 2.4
2018-Jun-17 10:00N 36°50' W 008°22'2 4.2
2018-Jun-17 09:31N 36°50' W 008°19'1 1.5
2018-Jun-17 09:00N 36°50' W 008°18'3 4.2
2018-Jun-17 08:21N 36°49' W 008°15'1 4.2
2018-Jun-17 08:00N 36°49' W 008°13'2 3.7
2018-Jun-17 07:30N 36°49' W 008°11'2 3.3
2018-Jun-17 06:53N 36°51' W 008°11'2 4.2
2018-Jun-17 06:29N 36°52' W 008°09'2 4.1
2018-Jun-17 05:58N 36°52' W 008°07'2 4.1
2018-Jun-17 05:30N 36°53' W 008°04'0 0.4
2018-Jun-17 04:59N 36°53' W 008°04'0 0.2
2018-Jun-17 04:16N 36°53' W 008°04'0 0.7
2018-Jun-17 03:43N 36°53' W 008°05'0 1.1
2018-Jun-17 03:30N 36°53' W 008°04'3 5.5
2018-Jun-17 03:00N 36°53' W 008°08'4 8.4
2018-Jun-17 02:30N 36°53' W 008°13'5 8.7
2018-Jun-17 01:59N 36°53' W 008°19'4 8.8
2018-Jun-17 01:30N 36°53' W 008°24'4 8.9
2018-Jun-17 01:00N 36°54' W 008°29'510.5
2018-Jun-17 00:30N 36°54' W 008°36'2 3.4
2018-Jun-16 23:59N 36°53' W 008°38'2 3.7
2018-Jun-16 23:30N 36°52' W 008°36'2 3.7
2018-Jun-16 23:00N 36°52' W 008°34'2 3.7
2018-Jun-16 22:30N 36°54' W 008°32'2 3.7
2018-Jun-16 22:00N 36°55' W 008°31'2 4.5
2018-Jun-16 21:30N 36°57' W 008°29'3 5.1
2018-Jun-16 21:00N 36°59' W 008°30'2 4.1
2018-Jun-16 20:30N 37°00' W 008°32'1 1.3
2018-Jun-16 19:46N 36°60' W 008°33'2 5.0
2018-Jun-16 19:25N 36°59' W 008°31'2 4.1
2018-Jun-16 19:00N 36°60' W 008°33'2 3.8
2018-Jun-16 18:27N 36°60' W 008°36'2 4.4
2018-Jun-16 17:57N 36°58' W 008°35'2 4.3
2018-Jun-16 17:30N 36°56' W 008°35'2 4.2
2018-Jun-16 16:58N 36°54' W 008°37'2 3.6
2018-Jun-16 16:29N 36°54' W 008°39'2 3.6
2018-Jun-16 15:59N 36°54' W 008°42'30 4.2
2018-Jun-16 09:00N 37°16' W 009°05'18 3.2
2018-Jun-16 03:18N 36°59' W 008°58'411.0
2018-Jun-16 02:55N 36°60' W 008°53'511.4
2018-Jun-16 02:28N 37°01' W 008°47'611.3
2018-Jun-16 01:58N 37°03' W 008°40'611.5
2018-Jun-16 01:28N 37°05' W 008°33'3 7.4
2018-Jun-16 01:00N 37°08' W 008°32'0 0.0
2018-Jun-16 00:30N 37°08' W 008°32'0 0.0
2018-Jun-15 23:57N 37°08' W 008°32'0 0.0
2018-Jun-15 23:30N 37°08' W 008°32'0 0.0
2018-Jun-15 23:00N 37°08' W 008°32'0 0.0
2018-Jun-15 22:30N 37°08' W 008°32'0 0.0
2018-Jun-15 22:00N 37°08' W 008°32'0 0.0
2018-Jun-15 21:30N 37°08' W 008°32'0 0.0
2018-Jun-15 21:00N 37°08' W 008°32'0 0.0
2018-Jun-15 20:30N 37°08' W 008°32'0 0.0
2018-Jun-15 20:00N 37°08' W 008°32'0 0.0
2018-Jun-15 19:30N 37°08' W 008°32'0 0.0
2018-Jun-15 18:57N 37°08' W 008°32'0 0.0
2018-Jun-15 18:30N 37°08' W 008°32'0 0.0
2018-Jun-15 18:00N 37°08' W 008°32'0 0.0
2018-Jun-15 17:30N 37°08' W 008°32'0 0.0
2018-Jun-15 17:00N 37°08' W 008°32'0 0.0
2018-Jun-15 16:30N 37°08' W 008°32'0 0.0
2018-Jun-15 16:00N 37°08' W 008°32'0 0.0
2018-Jun-15 15:30N 37°08' W 008°32'0 0.0
2018-Jun-15 15:00N 37°08' W 008°32'0 0.0
2018-Jun-15 14:30N 37°08' W 008°32'0 0.0
2018-Jun-15 14:00N 37°08' W 008°32'0 0.0
2018-Jun-15 13:30N 37°08' W 008°32'1 1.0
2018-Jun-15 13:00N 37°07' W 008°32'510.4
2018-Jun-15 12:30N 37°02' W 008°30'611.1
2018-Jun-15 12:00N 36°57' W 008°28'2 4.6
2018-Jun-15 11:30N 36°55' W 008°27'2 4.1
2018-Jun-15 11:00N 36°54' W 008°25'2 4.2
2018-Jun-15 10:30N 36°53' W 008°22'2 4.3
2018-Jun-15 10:00N 36°51' W 008°20'1 2.4
2018-Jun-15 09:29N 36°50' W 008°19'2 4.2
2018-Jun-15 09:00N 36°50' W 008°17'2 4.2
2018-Jun-15 08:30N 36°50' W 008°14'2 4.3
2018-Jun-15 07:59N 36°51' W 008°11'1 3.0
2018-Jun-15 07:30N 36°51' W 008°10'2 3.3
2018-Jun-15 07:00N 36°51' W 008°12'2 4.1
2018-Jun-15 06:30N 36°51' W 008°14'2 4.2
2018-Jun-15 06:00N 36°53' W 008°16'2 4.2
2018-Jun-15 05:30N 36°55' W 008°17'2 4.4
2018-Jun-15 05:00N 36°56' W 008°19'2 3.7
2018-Jun-15 04:30N 36°57' W 008°21'2 4.0
2018-Jun-15 03:59N 36°58' W 008°23'2 4.0
2018-Jun-15 03:30N 36°58' W 008°26'2 4.2
2018-Jun-15 03:00N 36°57' W 008°28'5 4.0
2018-Jun-15 01:47N 36°53' W 008°32'1 3.8
2018-Jun-15 01:30N 36°53' W 008°34'2 3.8
2018-Jun-15 01:00N 36°52' W 008°36'2 3.9
2018-Jun-15 00:30N 36°53' W 008°38'5 9.0
2018-Jun-15 00:00N 36°58' W 008°36'611.5
2018-Jun-14 23:30N 37°03' W 008°33'510.0
2018-Jun-14 23:00N 37°08' W 008°32'0 0.5
2018-Jun-14 22:28N 37°08' W 008°32'0 0.0
2018-Jun-14 22:00N 37°08' W 008°32'0 0.0
2018-Jun-14 21:30N 37°08' W 008°32'0 0.0
2018-Jun-14 21:00N 37°08' W 008°32'0 0.0
2018-Jun-14 20:30N 37°08' W 008°32'0 0.0
2018-Jun-14 19:59N 37°08' W 008°32'0 0.0
2018-Jun-14 19:30N 37°08' W 008°32'0 0.0
2018-Jun-14 19:00N 37°08' W 008°32'0 0.0
2018-Jun-14 18:26N 37°08' W 008°32'0 0.0
2018-Jun-14 17:58N 37°08' W 008°32'0 0.0
2018-Jun-14 17:28N 37°08' W 008°32'0 0.0
2018-Jun-14 16:58N 37°08' W 008°32'0 0.0
2018-Jun-14 16:26N 37°08' W 008°32'0 0.0
2018-Jun-14 15:57N 37°08' W 008°32'0 0.0
2018-Jun-14 15:16N 37°08' W 008°32'0 0.0
2018-Jun-14 14:14N 37°08' W 008°32'1 2.2
2018-Jun-14 13:54N 37°07' W 008°31'511.2
2018-Jun-14 13:28N 37°04' W 008°36'5 0.3
2018-Jun-13 21:09N 37°07' W 008°32'0 2.7
2018-Jun-13 21:00N 37°07' W 008°32'1 1.4
2018-Jun-13 20:30N 37°08' W 008°32'0 0.0
2018-Jun-13 20:00N 37°08' W 008°32'0 0.0
2018-Jun-13 19:30N 37°08' W 008°32'0 0.0
2018-Jun-13 19:00N 37°08' W 008°32'0 0.0
2018-Jun-13 18:30N 37°08' W 008°32'0 0.0
2018-Jun-13 18:00N 37°08' W 008°32'0 0.0
2018-Jun-13 17:29N 37°08' W 008°32'0 0.0
2018-Jun-13 17:00N 37°08' W 008°32'0 0.0
2018-Jun-13 16:30N 37°08' W 008°32'0 0.0
2018-Jun-13 16:00N 37°08' W 008°32'0 0.0
2018-Jun-13 15:30N 37°08' W 008°32'0 0.0
2018-Jun-13 14:58N 37°08' W 008°32'3 6.4
2018-Jun-13 14:30N 37°05' W 008°31'611.2
2018-Jun-13 13:59N 36°60' W 008°29'4 7.2
2018-Jun-13 13:29N 36°56' W 008°28'2 4.1
2018-Jun-13 12:57N 36°54' W 008°29'2 4.2
2018-Jun-13 12:23N 36°52' W 008°29'1 2.2
2018-Jun-13 12:00N 36°51' W 008°29'2 3.6
2018-Jun-13 11:26N 36°52' W 008°27'2 4.2
2018-Jun-13 10:59N 36°52' W 008°24'2 4.2
2018-Jun-13 10:28N 36°51' W 008°22'2 4.0
2018-Jun-13 09:58N 36°51' W 008°19'3 2.2
2018-Jun-13 08:27N 36°50' W 008°15'2 4.2
2018-Jun-13 08:00N 36°50' W 008°13'1 0.9
2018-Jun-13 07:28N 36°51' W 008°13'2 4.3
2018-Jun-13 06:59N 36°51' W 008°15'4 4.2
2018-Jun-13 05:57N 36°51' W 008°21'2 4.0
2018-Jun-13 05:30N 36°52' W 008°23'2 4.5
2018-Jun-13 04:59N 36°54' W 008°25'510.0
2018-Jun-13 04:27N 36°53' W 008°31'511.5
2018-Jun-13 04:00N 36°53' W 008°38'6 0.8
2018-Jun-12 21:08N 36°58' W 008°41'211.4
2018-Jun-12 21:00N 36°59' W 008°40'611.4
2018-Jun-12 20:30N 37°03' W 008°35'510.0
2018-Jun-12 20:00N 37°08' W 008°32'0 0.5
2018-Jun-12 19:30N 37°08' W 008°32'0 0.0
2018-Jun-12 19:00N 37°08' W 008°32'0 0.0
2018-Jun-12 18:30N 37°08' W 008°32'0 0.0
2018-Jun-12 18:00N 37°08' W 008°32'0 0.0
2018-Jun-12 17:30N 37°08' W 008°32'0 0.0
2018-Jun-12 17:00N 37°08' W 008°32'0 0.0
2018-Jun-12 16:30N 37°08' W 008°32'0 0.0
2018-Jun-12 16:00N 37°08' W 008°32'0 0.0
2018-Jun-12 15:30N 37°08' W 008°32'0 0.0
2018-Jun-12 15:00N 37°08' W 008°32'1 2.7
2018-Jun-12 14:30N 37°07' W 008°32'611.0
2018-Jun-12 13:58N 37°01' W 008°30'510.0
2018-Jun-12 13:30N 36°56' W 008°29'2 3.1
2018-Jun-12 13:00N 36°55' W 008°29'3 4.2
2018-Jun-12 12:20N 36°52' W 008°29'2 4.0
2018-Jun-12 11:55N 36°50' W 008°29'2 3.8
2018-Jun-12 11:30N 36°52' W 008°28'2 4.0
2018-Jun-12 11:00N 36°52' W 008°26'2 4.1
2018-Jun-12 10:29N 36°51' W 008°23'2 4.1
2018-Jun-12 10:00N 36°51' W 008°21'3 3.8
2018-Jun-12 09:07N 36°51' W 008°17'1 4.1
2018-Jun-12 09:00N 36°51' W 008°16'3 4.1
2018-Jun-12 08:19N 36°51' W 008°13'2 4.2
2018-Jun-12 07:52N 36°51' W 008°10'1 2.0
2018-Jun-12 07:28N 36°51' W 008°10'5 3.6
2018-Jun-12 06:14N 36°52' W 008°16'1 4.3
2018-Jun-12 05:58N 36°53' W 008°16'3 4.1
2018-Jun-12 05:18N 36°56' W 008°17'1 4.7
2018-Jun-12 04:59N 36°57' W 008°17'0 1.0
2018-Jun-12 04:30N 36°57' W 008°17'3 5.4
2018-Jun-12 03:59N 36°58' W 008°20'4 9.1
2018-Jun-12 03:30N 37°00' W 008°25'510.1
2018-Jun-12 02:59N 37°03' W 008°30'4 9.2
2018-Jun-12 02:30N 37°08' W 008°32'0 0.8
2018-Jun-12 02:00N 37°08' W 008°32'0 0.0
2018-Jun-12 01:30N 37°08' W 008°32'0 0.0
2018-Jun-12 01:00N 37°08' W 008°32'  
Track history (hours):
 
Tides and Currents Weather Stations Pressure Air Temp Water Temp Dewpoint Dewpoint Depression Visibility Wind Speed Wind Dir Waves Ship Positions

Delphinus

Last reported at 2018-Jun-21 21:20 UTC. Time now 2018-Jun-22 03:51 UTC.
Position N 36°53' W 008°39'.

Length 28 m; draft 4.2 m.

Type: Fishing. MMSI: 263410880.

Date/timePositionNaut miles runAvg speedWind from/ knotsBaromVisibWave heightAir tempDewpointWater temp
2018-Jun-21 21:20N 36°53' W 008°39'2 4.7
2018-Jun-21 20:57N 36°54' W 008°36'2 1.1
2018-Jun-21 19:08N 36°52' W 008°35'1 4.3
2018-Jun-21 18:55N 36°52' W 008°36'0 1.0
2018-Jun-21 18:28N 36°52' W 008°36'1 3.0
2018-Jun-21 17:59N 36°52' W 008°34'2 4.1
2018-Jun-21 17:24N 36°53' W 008°32'2 4.4
2018-Jun-21 17:00N 36°55' W 008°31'4 6.9
2018-Jun-21 16:30N 36°58' W 008°30'611.4
2018-Jun-21 15:58N 37°04' W 008°31'4 8.5
2018-Jun-21 15:30N 37°08' W 008°32'0 0.0
2018-Jun-21 15:00N 37°08' W 008°32'0 0.0
2018-Jun-21 14:30N 37°08' W 008°32'0 0.0
2018-Jun-21 14:00N 37°08' W 008°32'0 0.0
2018-Jun-21 13:30N 37°08' W 008°32'1 2.1
2018-Jun-21 12:59N 37°07' W 008°32'4 7.5
2018-Jun-21 12:30N 37°04' W 008°34'3 6.4
2018-Jun-21 12:00N 37°01' W 008°35'5 9.5
2018-Jun-21 11:30N 36°57' W 008°32'16 2.6
2018-Jun-21 05:12N 36°55' W 008°12'0 1.8
2018-Jun-21 04:57N 36°55' W 008°12'1 2.4
2018-Jun-21 04:28N 36°56' W 008°13'610.6
2018-Jun-21 03:54N 36°59' W 008°19'410.5
2018-Jun-21 03:30N 37°02' W 008°24'510.5
2018-Jun-21 02:59N 37°04' W 008°29'4 7.0
2018-Jun-21 02:24N 37°08' W 008°32'0 0.0
2018-Jun-21 01:57N 37°08' W 008°32'0 0.0
2018-Jun-21 01:30N 37°08' W 008°32'0 0.0
2018-Jun-21 00:34N 37°08' W 008°32'0 0.0
2018-Jun-21 00:30N 37°08' W 008°32'0 0.0
2018-Jun-20 23:57N 37°08' W 008°32'0 0.0
2018-Jun-20 23:26N 37°08' W 008°32'0 0.0
2018-Jun-20 22:54N 37°08' W 008°32'0 0.0
2018-Jun-20 22:28N 37°08' W 008°32'0 0.0
2018-Jun-20 22:00N 37°08' W 008°32'0 0.0
2018-Jun-20 21:30N 37°08' W 008°32'0 0.0
2018-Jun-20 21:00N 37°08' W 008°32'0 0.0
2018-Jun-20 20:30N 37°08' W 008°32'0 0.0
2018-Jun-20 20:00N 37°08' W 008°32'0 0.0
2018-Jun-20 19:30N 37°08' W 008°32'0 0.0
2018-Jun-20 18:59N 37°08' W 008°32'0 0.0
2018-Jun-20 18:30N 37°08' W 008°32'0 0.0
2018-Jun-20 18:00N 37°08' W 008°32'0 0.0
2018-Jun-20 17:30N 37°08' W 008°32'0 0.0
2018-Jun-20 17:00N 37°08' W 008°32'0 0.0
2018-Jun-20 16:30N 37°08' W 008°32'0 0.0
2018-Jun-20 16:00N 37°08' W 008°32'0 0.0
2018-Jun-20 15:30N 37°08' W 008°32'0 0.0
2018-Jun-20 14:58N 37°08' W 008°32'0 0.0
2018-Jun-20 14:30N 37°08' W 008°32'2 3.1
2018-Jun-20 14:00N 37°06' W 008°32'4 8.9
2018-Jun-20 13:29N 37°04' W 008°37'0 0.0
2018-Jun-19 19:01N 37°04' W 008°37'011.5
2018-Jun-19 19:00N 37°04' W 008°37'510.7
2018-Jun-19 18:31N 37°07' W 008°32'1 1.3
2018-Jun-19 18:01N 37°08' W 008°32'0 0.0
2018-Jun-19 17:29N 37°08' W 008°32'0 0.0
2018-Jun-19 17:01N 37°08' W 008°32'0 0.0
2018-Jun-19 16:31N 37°08' W 008°32'0 0.0
2018-Jun-19 16:00N 37°08' W 008°32'0 0.0
2018-Jun-19 15:31N 37°08' W 008°32'1 1.4
2018-Jun-19 15:01N 37°07' W 008°32'611.2
2018-Jun-19 14:30N 37°02' W 008°30'611.4
2018-Jun-19 14:00N 36°56' W 008°28'2 4.5
2018-Jun-19 13:30N 36°55' W 008°26'2 4.3
2018-Jun-19 13:00N 36°54' W 008°24'2 4.3
2018-Jun-19 12:30N 36°53' W 008°21'3 5.3
2018-Jun-19 11:59N 36°55' W 008°18'1 1.9
2018-Jun-19 11:29N 36°54' W 008°18'3 3.3
2018-Jun-19 10:30N 36°50' W 008°18'2 4.2
2018-Jun-19 09:58N 36°50' W 008°15'2 4.4
2018-Jun-19 09:24N 36°50' W 008°12'2 4.2
2018-Jun-19 08:58N 36°50' W 008°10'3 4.1
2018-Jun-19 08:21N 36°51' W 008°07'2 2.5
2018-Jun-19 07:44N 36°51' W 008°09'1 2.2
2018-Jun-19 07:29N 36°51' W 008°10'2 4.2
2018-Jun-19 06:59N 36°51' W 008°12'2 4.3
2018-Jun-19 06:31N 36°51' W 008°15'2 3.5
2018-Jun-19 06:00N 36°53' W 008°15'2 4.0
2018-Jun-19 05:31N 36°54' W 008°13'2 4.3
2018-Jun-19 05:01N 36°56' W 008°15'3 5.1
2018-Jun-19 04:31N 36°57' W 008°18'2 3.7
2018-Jun-19 04:00N 36°57' W 008°20'2 3.8
2018-Jun-19 03:31N 36°58' W 008°22'2 3.4
2018-Jun-19 03:00N 36°58' W 008°24'2 3.8
2018-Jun-19 02:30N 36°58' W 008°27'2 3.4
2018-Jun-19 02:00N 36°57' W 008°28'1 2.6
2018-Jun-19 01:30N 36°56' W 008°29'2 3.7
2018-Jun-19 01:00N 36°55' W 008°31'2 3.7
2018-Jun-19 00:30N 36°53' W 008°32'2 3.7
2018-Jun-19 00:00N 36°52' W 008°34'2 3.8
2018-Jun-18 23:31N 36°53' W 008°36'2 4.1
2018-Jun-18 23:00N 36°54' W 008°39'611.2
2018-Jun-18 22:30N 36°59' W 008°36'611.4
2018-Jun-18 22:00N 37°04' W 008°33'4 8.3
2018-Jun-18 21:31N 37°08' W 008°32'0 0.0
2018-Jun-18 21:01N 37°08' W 008°32'0 0.0
2018-Jun-18 20:31N 37°08' W 008°32'0 0.0
2018-Jun-18 20:00N 37°08' W 008°32'0 0.0
2018-Jun-18 19:30N 37°08' W 008°32'0 0.0
2018-Jun-18 19:00N 37°08' W 008°32'0 0.0
2018-Jun-18 18:31N 37°08' W 008°32'0 0.0
2018-Jun-18 17:59N 37°08' W 008°32'0 0.0
2018-Jun-18 17:29N 37°08' W 008°32'0 0.0
2018-Jun-18 16:47N 37°08' W 008°32'0 0.0
2018-Jun-18 16:17N 37°08' W 008°32'0 0.0
2018-Jun-18 15:58N 37°08' W 008°32'0 0.0
2018-Jun-18 15:30N 37°08' W 008°32'0 0.0
2018-Jun-18 15:00N 37°08' W 008°32'0 0.0
2018-Jun-18 14:30N 37°08' W 008°32'0 0.0
2018-Jun-18 14:00N 37°08' W 008°32'0 0.0
2018-Jun-18 13:30N 37°08' W 008°32'0 0.0
2018-Jun-18 13:01N 37°08' W 008°32'1 1.6
2018-Jun-18 12:30N 37°07' W 008°32'510.8
2018-Jun-18 12:01N 37°03' W 008°36'611.7
2018-Jun-18 11:30N 36°59' W 008°41'2 4.0
2018-Jun-18 11:01N 36°58' W 008°43'2 4.3
2018-Jun-18 10:30N 36°58' W 008°40'1 1.5
2018-Jun-18 10:01N 36°58' W 008°39'17 7.3
2018-Jun-18 07:41N 36°51' W 008°59'1 4.3
2018-Jun-18 07:30N 36°52' W 008°60'3 1.2
2018-Jun-18 05:21N 36°54' W 009°01'3 7.5
2018-Jun-18 04:54N 36°55' W 008°57'511.5
2018-Jun-18 04:30N 36°57' W 008°51'611.6
2018-Jun-18 04:00N 36°58' W 008°45'1 1.4
2018-Jun-18 03:31N 36°58' W 008°45'10 1.8
2018-Jun-17 22:05N 36°50' W 008°53'110.6
2018-Jun-17 22:00N 36°50' W 008°52'510.3
2018-Jun-17 21:30N 36°51' W 008°46'611.0
2018-Jun-17 20:56N 36°52' W 008°38'0 1.1
2018-Jun-17 20:30N 36°52' W 008°37'3 4.1
2018-Jun-17 19:44N 36°52' W 008°34'1 4.0
2018-Jun-17 19:27N 36°53' W 008°32'3 4.4
2018-Jun-17 18:45N 36°55' W 008°30'1 3.8
2018-Jun-17 18:30N 36°56' W 008°29'2 3.3
2018-Jun-17 18:00N 36°54' W 008°29'2 4.2
2018-Jun-17 17:29N 36°52' W 008°29'3 4.8
2018-Jun-17 16:57N 36°49' W 008°29'1 2.6
2018-Jun-17 16:26N 36°50' W 008°28'4 4.3
2018-Jun-17 15:28N 36°50' W 008°23'2 2.6
2018-Jun-17 14:48N 36°51' W 008°21'1 4.2
2018-Jun-17 14:28N 36°51' W 008°19'2 4.2
2018-Jun-17 13:59N 36°50' W 008°17'2 4.1
2018-Jun-17 13:27N 36°50' W 008°14'2 4.7
2018-Jun-17 12:58N 36°49' W 008°11'1 2.2
2018-Jun-17 12:29N 36°49' W 008°13'2 4.2
2018-Jun-17 12:00N 36°49' W 008°15'5 4.4
2018-Jun-17 10:56N 36°49' W 008°21'2 4.2
2018-Jun-17 10:29N 36°50' W 008°23'1 2.4
2018-Jun-17 10:00N 36°50' W 008°22'2 4.2
2018-Jun-17 09:31N 36°50' W 008°19'1 1.5
2018-Jun-17 09:00N 36°50' W 008°18'3 4.2
2018-Jun-17 08:21N 36°49' W 008°15'1 4.2
2018-Jun-17 08:00N 36°49' W 008°13'2 3.7
2018-Jun-17 07:30N 36°49' W 008°11'2 3.3
2018-Jun-17 06:53N 36°51' W 008°11'2 4.2
2018-Jun-17 06:29N 36°52' W 008°09'2 4.1
2018-Jun-17 05:58N 36°52' W 008°07'2 4.1
2018-Jun-17 05:30N 36°53' W 008°04'0 0.4
2018-Jun-17 04:59N 36°53' W 008°04'0 0.2
2018-Jun-17 04:16N 36°53' W 008°04'0 0.7
2018-Jun-17 03:43N 36°53' W 008°05'0 1.1
2018-Jun-17 03:30N 36°53' W 008°04'3 5.5
2018-Jun-17 03:00N 36°53' W 008°08'4 8.4
2018-Jun-17 02:30N 36°53' W 008°13'5 8.7
2018-Jun-17 01:59N 36°53' W 008°19'4 8.8
2018-Jun-17 01:30N 36°53' W 008°24'4 8.9
2018-Jun-17 01:00N 36°54' W 008°29'510.5
2018-Jun-17 00:30N 36°54' W 008°36'2 3.4
2018-Jun-16 23:59N 36°53' W 008°38'2 3.7
2018-Jun-16 23:30N 36°52' W 008°36'2 3.7
2018-Jun-16 23:00N 36°52' W 008°34'2 3.7
2018-Jun-16 22:30N 36°54' W 008°32'2 3.7
2018-Jun-16 22:00N 36°55' W 008°31'2 4.5
2018-Jun-16 21:30N 36°57' W 008°29'3 5.1
2018-Jun-16 21:00N 36°59' W 008°30'2 4.1
2018-Jun-16 20:30N 37°00' W 008°32'1 1.3
2018-Jun-16 19:46N 36°60' W 008°33'2 5.0
2018-Jun-16 19:25N 36°59' W 008°31'2 4.1
2018-Jun-16 19:00N 36°60' W 008°33'2 3.8
2018-Jun-16 18:27N 36°60' W 008°36'2 4.4
2018-Jun-16 17:57N 36°58' W 008°35'2 4.3
2018-Jun-16 17:30N 36°56' W 008°35'2 4.2
2018-Jun-16 16:58N 36°54' W 008°37'2 3.6
2018-Jun-16 16:29N 36°54' W 008°39'2 3.6
2018-Jun-16 15:59N 36°54' W 008°42'30 4.2
2018-Jun-16 09:00N 37°16' W 009°05'18 3.2
2018-Jun-16 03:18N 36°59' W 008°58'411.0
2018-Jun-16 02:55N 36°60' W 008°53'511.4
2018-Jun-16 02:28N 37°01' W 008°47'611.3
2018-Jun-16 01:58N 37°03' W 008°40'611.5
2018-Jun-16 01:28N 37°05' W 008°33'3 7.4
2018-Jun-16 01:00N 37°08' W 008°32'0 0.0
2018-Jun-16 00:30N 37°08' W 008°32'0 0.0
2018-Jun-15 23:57N 37°08' W 008°32'0 0.0
2018-Jun-15 23:30N 37°08' W 008°32'0 0.0
2018-Jun-15 23:00N 37°08' W 008°32'0 0.0
2018-Jun-15 22:30N 37°08' W 008°32'0 0.0
2018-Jun-15 22:00N 37°08' W 008°32'0 0.0
2018-Jun-15 21:30N 37°08' W 008°32'0 0.0
2018-Jun-15 21:00N 37°08' W 008°32'0 0.0
2018-Jun-15 20:30N 37°08' W 008°32'0 0.0
2018-Jun-15 20:00N 37°08' W 008°32'0 0.0
2018-Jun-15 19:30N 37°08' W 008°32'0 0.0
2018-Jun-15 18:57N 37°08' W 008°32'0 0.0
2018-Jun-15 18:30N 37°08' W 008°32'0 0.0
2018-Jun-15 18:00N 37°08' W 008°32'0 0.0
2018-Jun-15 17:30N 37°08' W 008°32'0 0.0
2018-Jun-15 17:00N 37°08' W 008°32'0 0.0
2018-Jun-15 16:30N 37°08' W 008°32'0 0.0
2018-Jun-15 16:00N 37°08' W 008°32'0 0.0
2018-Jun-15 15:30N 37°08' W 008°32'0 0.0
2018-Jun-15 15:00N 37°08' W 008°32'0 0.0
2018-Jun-15 14:30N 37°08' W 008°32'0 0.0
2018-Jun-15 14:00N 37°08' W 008°32'0 0.0
2018-Jun-15 13:30N 37°08' W 008°32'1 1.0
2018-Jun-15 13:00N 37°07' W 008°32'510.4
2018-Jun-15 12:30N 37°02' W 008°30'611.1
2018-Jun-15 12:00N 36°57' W 008°28'2 4.6
2018-Jun-15 11:30N 36°55' W 008°27'2 4.1
2018-Jun-15 11:00N 36°54' W 008°25'2 4.2
2018-Jun-15 10:30N 36°53' W 008°22'2 4.3
2018-Jun-15 10:00N 36°51' W 008°20'1 2.4
2018-Jun-15 09:29N 36°50' W 008°19'2 4.2
2018-Jun-15 09:00N 36°50' W 008°17'2 4.2
2018-Jun-15 08:30N 36°50' W 008°14'2 4.3
2018-Jun-15 07:59N 36°51' W 008°11'1 3.0
2018-Jun-15 07:30N 36°51' W 008°10'2 3.3
2018-Jun-15 07:00N 36°51' W 008°12'2 4.1
2018-Jun-15 06:30N 36°51' W 008°14'2 4.2
2018-Jun-15 06:00N 36°53' W 008°16'2 4.2
2018-Jun-15 05:30N 36°55' W 008°17'2 4.4
2018-Jun-15 05:00N 36°56' W 008°19'2 3.7
2018-Jun-15 04:30N 36°57' W 008°21'2 4.0
2018-Jun-15 03:59N 36°58' W 008°23'2 4.0
2018-Jun-15 03:30N 36°58' W 008°26'2 4.2
2018-Jun-15 03:00N 36°57' W 008°28'5 4.0
2018-Jun-15 01:47N 36°53' W 008°32'1 3.8
2018-Jun-15 01:30N 36°53' W 008°34'2 3.8
2018-Jun-15 01:00N 36°52' W 008°36'2 3.9
2018-Jun-15 00:30N 36°53' W 008°38'5 9.0
2018-Jun-15 00:00N 36°58' W 008°36'611.5
2018-Jun-14 23:30N 37°03' W 008°33'510.0
2018-Jun-14 23:00N 37°08' W 008°32'0 0.5
2018-Jun-14 22:28N 37°08' W 008°32'0 0.0
2018-Jun-14 22:00N 37°08' W 008°32'0 0.0
2018-Jun-14 21:30N 37°08' W 008°32'0 0.0
2018-Jun-14 21:00N 37°08' W 008°32'0 0.0
2018-Jun-14 20:30N 37°08' W 008°32'0 0.0
2018-Jun-14 19:59N 37°08' W 008°32'0 0.0
2018-Jun-14 19:30N 37°08' W 008°32'0 0.0
2018-Jun-14 19:00N 37°08' W 008°32'0 0.0
2018-Jun-14 18:26N 37°08' W 008°32'0 0.0
2018-Jun-14 17:58N 37°08' W 008°32'0 0.0
2018-Jun-14 17:28N 37°08' W 008°32'0 0.0
2018-Jun-14 16:58N 37°08' W 008°32'0 0.0
2018-Jun-14 16:26N 37°08' W 008°32'0 0.0
2018-Jun-14 15:57N 37°08' W 008°32'0 0.0
2018-Jun-14 15:16N 37°08' W 008°32'0 0.0
2018-Jun-14 14:14N 37°08' W 008°32'1 2.2
2018-Jun-14 13:54N 37°07' W 008°31'511.2
2018-Jun-14 13:28N 37°04' W 008°36'5 0.3
2018-Jun-13 21:09N 37°07' W 008°32'0 2.7
2018-Jun-13 21:00N 37°07' W 008°32'1 1.4
2018-Jun-13 20:30N 37°08' W 008°32'0 0.0
2018-Jun-13 20:00N 37°08' W 008°32'0 0.0
2018-Jun-13 19:30N 37°08' W 008°32'0 0.0
2018-Jun-13 19:00N 37°08' W 008°32'0 0.0
2018-Jun-13 18:30N 37°08' W 008°32'0 0.0
2018-Jun-13 18:00N 37°08' W 008°32'0 0.0
2018-Jun-13 17:29N 37°08' W 008°32'0 0.0
2018-Jun-13 17:00N 37°08' W 008°32'0 0.0
2018-Jun-13 16:30N 37°08' W 008°32'0 0.0
2018-Jun-13 16:00N 37°08' W 008°32'0 0.0
2018-Jun-13 15:30N 37°08' W 008°32'0 0.0
2018-Jun-13 14:58N 37°08' W 008°32'3 6.4
2018-Jun-13 14:30N 37°05' W 008°31'611.2
2018-Jun-13 13:59N 36°60' W 008°29'4 7.2
2018-Jun-13 13:29N 36°56' W 008°28'2 4.1
2018-Jun-13 12:57N 36°54' W 008°29'2 4.2
2018-Jun-13 12:23N 36°52' W 008°29'1 2.2
2018-Jun-13 12:00N 36°51' W 008°29'2 3.6
2018-Jun-13 11:26N 36°52' W 008°27'2 4.2
2018-Jun-13 10:59N 36°52' W 008°24'2 4.2
2018-Jun-13 10:28N 36°51' W 008°22'2 4.0
2018-Jun-13 09:58N 36°51' W 008°19'3 2.2
2018-Jun-13 08:27N 36°50' W 008°15'2 4.2
2018-Jun-13 08:00N 36°50' W 008°13'1 0.9
2018-Jun-13 07:28N 36°51' W 008°13'2 4.3
2018-Jun-13 06:59N 36°51' W 008°15'4 4.2
2018-Jun-13 05:57N 36°51' W 008°21'2 4.0
2018-Jun-13 05:30N 36°52' W 008°23'2 4.5
2018-Jun-13 04:59N 36°54' W 008°25'510.0
2018-Jun-13 04:27N 36°53' W 008°31'511.5
2018-Jun-13 04:00N 36°53' W 008°38'6 0.8
2018-Jun-12 21:08N 36°58' W 008°41'211.4
2018-Jun-12 21:00N 36°59' W 008°40'611.4
2018-Jun-12 20:30N 37°03' W 008°35'510.0
2018-Jun-12 20:00N 37°08' W 008°32'0 0.5
2018-Jun-12 19:30N 37°08' W 008°32'0 0.0
2018-Jun-12 19:00N 37°08' W 008°32'0 0.0
2018-Jun-12 18:30N 37°08' W 008°32'0 0.0
2018-Jun-12 18:00N 37°08' W 008°32'0 0.0
2018-Jun-12 17:30N 37°08' W 008°32'0 0.0
2018-Jun-12 17:00N 37°08' W 008°32'0 0.0
2018-Jun-12 16:30N 37°08' W 008°32'0 0.0
2018-Jun-12 16:00N 37°08' W 008°32'0 0.0
2018-Jun-12 15:30N 37°08' W 008°32'0 0.0
2018-Jun-12 15:00N 37°08' W 008°32'1 2.7
2018-Jun-12 14:30N 37°07' W 008°32'611.0
2018-Jun-12 13:58N 37°01' W 008°30'510.0
2018-Jun-12 13:30N 36°56' W 008°29'2 3.1
2018-Jun-12 13:00N 36°55' W 008°29'3 4.2
2018-Jun-12 12:20N 36°52' W 008°29'2 4.0
2018-Jun-12 11:55N 36°50' W 008°29'2 3.8
2018-Jun-12 11:30N 36°52' W 008°28'2 4.0
2018-Jun-12 11:00N 36°52' W 008°26'2 4.1
2018-Jun-12 10:29N 36°51' W 008°23'2 4.1
2018-Jun-12 10:00N 36°51' W 008°21'3 3.8
2018-Jun-12 09:07N 36°51' W 008°17'1 4.1
2018-Jun-12 09:00N 36°51' W 008°16'3 4.1
2018-Jun-12 08:19N 36°51' W 008°13'2 4.2
2018-Jun-12 07:52N 36°51' W 008°10'1 2.0
2018-Jun-12 07:28N 36°51' W 008°10'5 3.6
2018-Jun-12 06:14N 36°52' W 008°16'1 4.3
2018-Jun-12 05:58N 36°53' W 008°16'3 4.1
2018-Jun-12 05:18N 36°56' W 008°17'1 4.7
2018-Jun-12 04:59N 36°57' W 008°17'0 1.0
2018-Jun-12 04:30N 36°57' W 008°17'3 5.4
2018-Jun-12 03:59N 36°58' W 008°20'4 9.1
2018-Jun-12 03:30N 37°00' W 008°25'510.1
2018-Jun-12 02:59N 37°03' W 008°30'4 9.2
2018-Jun-12 02:30N 37°08' W 008°32'0 0.8
2018-Jun-12 02:00N 37°08' W 008°32'0 0.0
2018-Jun-12 01:30N 37°08' W 008°32'0 0.0
2018-Jun-12 01:00N 37°08' W 008°32'  

Dump ship's entire track history